Relevés horaires Beauvechain (Belgique)


Relevés horaires à Beauvechain - Vendredi 05 Avr. 2019
Heure UTC1 Température [°C] Vent [km/h] Hum. [%] Pres.4 [hPa] Visi. [Km] Nébu. [octa] Préc.5 [mm] Cond.
2m. Res. Ros. Dir.2 Vit. Moy. Raf.3
23:00 7.4 7.4 4.6 ENE 3.7 -- 7.4 82 1005.2(-0.1/3h) 7 -- -- --
22:00 7.6 6.8 4.3 ENE 5.6 -- 11.1 80 1005.3(0.2/3h) 9 -- -- --
21:00 8.0 7.3 4.2 ENE 5.6 -- 13.0 77 1005.3(0.5/3h) 10 -- -- --
20:00 8.3 7.1 4.1 ENE 7.4 -- 13.0 75 1005.2(0.6/3h) 12 -- -- --
19:00 8.8 7.7 4.1 ENE 7.4 -- 13.0 72 1005.1(0.6/3h) 12 -- -- --
18:00 9.3 8.3 3.5 E 7.4 -- 13.0 67 1004.7(0.1/3h) 16 -- -- --
17:00 10.3 9.5 2.9 E 7.4 -- 13.0 60 1004.5(-0.4/3h) 20 -- -- --
16:00 11.1 10.1 2.2 ENE 9.3 -- 13.0 54 1004.2(-1.1/3h) 15 6/8 -- --
15:00 11.6 11 1.2 ENE 7.4 -- 13.0 49 1004.5(-1.4/3h) 15 6/8 -- --
14:00 12.0 11.9 1.2 E 5.6 -- 13.0 48 1004.8(-1.3/3h) 15 5/8 -- --
13:00 11.8 11.2 1.9 E 7.4 -- 13.0 51 1005.5(-1.0/3h) 20 5/8 -- --
12:00 11.3 10.7 2.4 ENE 7.4 -- 11.1 54 1006(-0.6/3h) 20 5/8 -- --
11:00 10.9 10.6 2.7 E 5.6 -- 11.1 57 1006.3(-0.4/3h) 20 4/8 -- --
10:00 9.6 9.1 1.0 E 5.6 -- 9.3 55 1006.7(0.0/3h) 20 2/8 -- --
09:00 8.7 8.7 3.2 E 1.9 -- 3.7 68 1006.8(0.2/3h) 20 2/8 -- --
08:00 7.6 7.6 3.4 NNO 1.9 -- 3.7 75 1006.8(0.8/3h) 20 2/8 -- --
07:00 5.3 5.3 2.1 NNO 1.9 -- 5.6 80 1006.7(0.9/3h) 20 2/8 -- --
06:00 3.5 3.5 0.6 NNO 1.9 -- 7.4 81 1006.7(0.9/3h) 20 2/8 -- --
05:00 2.9 2.9 -0.1 NNO 1.9 -- 3.7 81 1006.2(0.5/3h) 20 -- -- --
04:00 3.3 3.3 -- NNO 1.9 -- 5.6 -- 1006(0.4/3h) 20 -- -- --
03:00 3.6 3.6 0.2 SSE 3.7 -- 7.4 78 1005.7(0.4/3h) 20 -- -- --
02:00 3.9 3.9 0.7 NNO 1.9 -- 7.4 80 1005.7(0.6/3h) 20 -- -- --
01:00 4.0 4.0 0.9 NNO 1.9 -- 5.6 80 1005.5(0.7/3h) 20 -- -- --
00:00 4.5 4.5 0.6 NNO 1.9 -- 5.6 76 1005.2(1.0/3h) 20 -- -- --

1 Coordinated Universal Time. Actuellement il est 10:00 locale et 09:00 UTC.

2 Le vent souffle depuis la direction indiquée vers la direction oposée.

3 Les rafales max. sont disponible 40 min après l'heure du relevé.

4 Pour les stations d'altitude (plus de 600m) le géopotentiel du niveau le plus proche de la pression obligatoire est indiqué.

5 Les stations disposant d'un diffuseur peuvent indiquer "trace". Cela signifie que des précipitations ont touchés le sol mais que la quantité est inférieure à 0.1 mm.

Récapitulatif de la journée
Température [°C] Vent [km/h] Ensoleillement4 [h] Precipitations totale5 [mm] Pression [Hpa]
Min1 Max.2 Moy.3 Max. Min Max.
2.7 12.3 0 13.0 0 h 0 min 0 1004.2 1006.8

1 Température minimale relevée entre 18:00 UTC la veille et 18:00 UTC le jour donné.

2 Température maximale relevée entre 06:00 UTC le jour donné et 06:00 UTC le lendemain.

3 Vent moyen de la journée basé sur les relevés horaires.

4 Ensoleillement en heures relevé entre 06:00 UTC la veille et 06:00 UTC le jour donné.

5 Précipitations totales tombées entre 06:00 UTC la jour donné et 06:00 UTC le lendemain.

Graphiques horaires